sensor_id;sensor_type;location;lat;lon;timestamp;P1;durP1;ratioP1;P2;durP2;ratioP2
20076;SDS011;12348;42.710;23.378;2022-12-29T00:01:23;23.47;;;11.97;;
20076;SDS011;12348;42.710;23.378;2022-12-29T00:03:50;29.07;;;11.43;;
20076;SDS011;12348;42.710;23.378;2022-12-29T00:06:19;22.70;;;11.97;;
20076;SDS011;12348;42.710;23.378;2022-12-29T00:08:45;23.17;;;10.87;;
20076;SDS011;12348;42.710;23.378;2022-12-29T00:11:14;20.83;;;10.77;;
20076;SDS011;12348;42.710;23.378;2022-12-29T00:13:41;20.83;;;11.37;;
20076;SDS011;12348;42.710;23.378;2022-12-29T00:16:27;17.10;;;10.07;;
20076;SDS011;12348;42.710;23.378;2022-12-29T00:18:54;13.63;;;8.87;;
20076;SDS011;12348;42.710;23.378;2022-12-29T00:21:23;14.70;;;8.47;;
20076;SDS011;12348;42.710;23.378;2022-12-29T00:24:09;15.80;;;9.80;;
20076;SDS011;12348;42.710;23.378;2022-12-29T00:26:57;15.40;;;10.10;;
20076;SDS011;12348;42.710;23.378;2022-12-29T00:29:52;19.03;;;11.73;;
20076;SDS011;12348;42.710;23.378;2022-12-29T00:32:36;14.53;;;9.10;;
20076;SDS011;12348;42.710;23.378;2022-12-29T00:35:23;16.70;;;7.03;;
20076;SDS011;12348;42.710;23.378;2022-12-29T00:37:54;17.53;;;10.80;;
20076;SDS011;12348;42.710;23.378;2022-12-29T00:40:40;19.63;;;11.00;;
20076;SDS011;12348;42.710;23.378;2022-12-29T00:43:25;20.67;;;10.57;;
20076;SDS011;12348;42.710;23.378;2022-12-29T00:46:09;18.20;;;9.37;;
20076;SDS011;12348;42.710;23.378;2022-12-29T00:48:36;20.73;;;10.07;;
20076;SDS011;12348;42.710;23.378;2022-12-29T00:51:20;17.07;;;10.23;;
20076;SDS011;12348;42.710;23.378;2022-12-29T00:53:48;22.47;;;12.87;;
20076;SDS011;12348;42.710;23.378;2022-12-29T00:56:15;21.53;;;11.57;;
20076;SDS011;12348;42.710;23.378;2022-12-29T00:58:42;21.37;;;12.30;;
20076;SDS011;12348;42.710;23.378;2022-12-29T01:01:09;23.40;;;12.10;;
20076;SDS011;12348;42.710;23.378;2022-12-29T01:03:36;20.30;;;11.50;;
20076;SDS011;12348;42.710;23.378;2022-12-29T01:06:05;18.77;;;10.73;;
20076;SDS011;12348;42.710;23.378;2022-12-29T01:08:33;18.80;;;10.33;;
20076;SDS011;12348;42.710;23.378;2022-12-29T01:11:03;21.20;;;10.93;;
20076;SDS011;12348;42.710;23.378;2022-12-29T01:13:30;20.00;;;11.57;;
20076;SDS011;12348;42.710;23.378;2022-12-29T01:15:56;16.80;;;9.80;;
20076;SDS011;12348;42.710;23.378;2022-12-29T01:18:24;20.43;;;11.27;;
20076;SDS011;12348;42.710;23.378;2022-12-29T01:20:53;27.23;;;10.00;;
20076;SDS011;12348;42.710;23.378;2022-12-29T01:23:25;20.67;;;10.73;;
20076;SDS011;12348;42.710;23.378;2022-12-29T01:25:51;14.80;;;8.10;;
20076;SDS011;12348;42.710;23.378;2022-12-29T01:28:20;26.30;;;11.50;;
20076;SDS011;12348;42.710;23.378;2022-12-29T01:30:47;21.90;;;11.13;;
20076;SDS011;12348;42.710;23.378;2022-12-29T01:33:13;20.83;;;10.83;;
20076;SDS011;12348;42.710;23.378;2022-12-29T01:35:40;18.33;;;10.73;;
20076;SDS011;12348;42.710;23.378;2022-12-29T01:38:07;25.67;;;12.57;;
20076;SDS011;12348;42.710;23.378;2022-12-29T01:40:34;21.67;;;12.73;;
20076;SDS011;12348;42.710;23.378;2022-12-29T01:43:10;18.03;;;11.33;;
20076;SDS011;12348;42.710;23.378;2022-12-29T01:45:41;21.80;;;10.50;;
20076;SDS011;12348;42.710;23.378;2022-12-29T01:48:12;17.27;;;11.60;;
20076;SDS011;12348;42.710;23.378;2022-12-29T01:50:40;21.00;;;10.60;;
20076;SDS011;12348;42.710;23.378;2022-12-29T01:53:10;20.37;;;12.93;;
20076;SDS011;12348;42.710;23.378;2022-12-29T01:55:40;23.60;;;11.03;;
20076;SDS011;12348;42.710;23.378;2022-12-29T01:58:10;19.67;;;10.83;;
20076;SDS011;12348;42.710;23.378;2022-12-29T02:00:39;18.37;;;10.57;;
20076;SDS011;12348;42.710;23.378;2022-12-29T02:03:07;16.47;;;9.57;;
20076;SDS011;12348;42.710;23.378;2022-12-29T02:05:37;14.87;;;9.00;;
20076;SDS011;12348;42.710;23.378;2022-12-29T02:08:08;17.17;;;8.90;;
20076;SDS011;12348;42.710;23.378;2022-12-29T02:10:37;18.57;;;11.30;;
20076;SDS011;12348;42.710;23.378;2022-12-29T02:13:05;21.33;;;10.70;;
20076;SDS011;12348;42.710;23.378;2022-12-29T02:15:34;28.47;;;11.73;;
20076;SDS011;12348;42.710;23.378;2022-12-29T02:24:17;16.87;;;9.23;;
20076;SDS011;12348;42.710;23.378;2022-12-29T02:30:37;17.20;;;10.43;;
20076;SDS011;12348;42.710;23.378;2022-12-29T02:33:12;21.37;;;9.90;;
20076;SDS011;12348;42.710;23.378;2022-12-29T02:35:50;17.17;;;8.10;;
20076;SDS011;12348;42.710;23.378;2022-12-29T02:38:38;15.83;;;9.77;;
20076;SDS011;12348;42.710;23.378;2022-12-29T02:41:16;19.00;;;9.00;;
20076;SDS011;12348;42.710;23.378;2022-12-29T02:43:48;19.60;;;11.23;;
20076;SDS011;12348;42.710;23.378;2022-12-29T02:46:23;24.63;;;13.60;;
20076;SDS011;12348;42.710;23.378;2022-12-29T02:48:55;20.97;;;10.90;;
20076;SDS011;12348;42.710;23.378;2022-12-29T02:51:32;17.50;;;11.17;;
20076;SDS011;12348;42.710;23.378;2022-12-29T02:54:03;19.73;;;10.60;;
20076;SDS011;12348;42.710;23.378;2022-12-29T02:56:48;19.03;;;11.27;;
20076;SDS011;12348;42.710;23.378;2022-12-29T02:59:15;25.10;;;12.30;;
20076;SDS011;12348;42.710;23.378;2022-12-29T03:01:50;22.57;;;11.60;;
20076;SDS011;12348;42.710;23.378;2022-12-29T03:04:44;21.73;;;11.57;;
20076;SDS011;12348;42.710;23.378;2022-12-29T03:07:22;20.43;;;10.87;;
20076;SDS011;12348;42.710;23.378;2022-12-29T03:09:56;19.53;;;11.30;;
20076;SDS011;12348;42.710;23.378;2022-12-29T03:12:29;18.37;;;11.30;;
20076;SDS011;12348;42.710;23.378;2022-12-29T03:15:17;25.17;;;12.83;;
20076;SDS011;12348;42.710;23.378;2022-12-29T03:18:09;24.00;;;12.23;;
20076;SDS011;12348;42.710;23.378;2022-12-29T03:20:43;17.07;;;9.87;;
20076;SDS011;12348;42.710;23.378;2022-12-29T03:23:15;26.63;;;12.37;;
20076;SDS011;12348;42.710;23.378;2022-12-29T03:25:45;20.53;;;10.23;;
20076;SDS011;12348;42.710;23.378;2022-12-29T03:28:17;31.53;;;13.67;;
20076;SDS011;12348;42.710;23.378;2022-12-29T03:30:47;19.90;;;11.27;;
20076;SDS011;12348;42.710;23.378;2022-12-29T03:33:15;20.20;;;12.40;;
20076;SDS011;12348;42.710;23.378;2022-12-29T03:35:46;24.00;;;11.53;;
20076;SDS011;12348;42.710;23.378;2022-12-29T03:38:17;17.50;;;9.90;;
20076;SDS011;12348;42.710;23.378;2022-12-29T03:40:48;18.57;;;8.90;;
20076;SDS011;12348;42.710;23.378;2022-12-29T03:43:18;10.37;;;5.87;;
20076;SDS011;12348;42.710;23.378;2022-12-29T03:45:46;13.17;;;8.60;;
20076;SDS011;12348;42.710;23.378;2022-12-29T03:48:14;16.00;;;8.53;;
20076;SDS011;12348;42.710;23.378;2022-12-29T03:50:41;16.30;;;9.50;;
20076;SDS011;12348;42.710;23.378;2022-12-29T03:53:07;15.77;;;8.27;;
20076;SDS011;12348;42.710;23.378;2022-12-29T03:55:34;12.80;;;8.47;;
20076;SDS011;12348;42.710;23.378;2022-12-29T03:58:01;17.37;;;11.00;;
20076;SDS011;12348;42.710;23.378;2022-12-29T04:00:28;18.90;;;10.27;;
20076;SDS011;12348;42.710;23.378;2022-12-29T04:02:55;14.40;;;8.77;;
20076;SDS011;12348;42.710;23.378;2022-12-29T04:05:23;14.93;;;9.17;;
20076;SDS011;12348;42.710;23.378;2022-12-29T04:07:50;17.50;;;9.87;;
20076;SDS011;12348;42.710;23.378;2022-12-29T04:10:16;19.83;;;12.73;;
20076;SDS011;12348;42.710;23.378;2022-12-29T04:12:43;17.43;;;10.47;;
20076;SDS011;12348;42.710;23.378;2022-12-29T04:15:11;15.73;;;10.30;;
20076;SDS011;12348;42.710;23.378;2022-12-29T04:17:38;19.43;;;11.70;;
20076;SDS011;12348;42.710;23.378;2022-12-29T04:20:06;18.87;;;11.43;;
20076;SDS011;12348;42.710;23.378;2022-12-29T04:22:58;30.57;;;15.10;;
20076;SDS011;12348;42.710;23.378;2022-12-29T04:25:26;31.93;;;15.57;;
20076;SDS011;12348;42.710;23.378;2022-12-29T04:27:53;29.87;;;15.03;;
20076;SDS011;12348;42.710;23.378;2022-12-29T04:30:19;31.90;;;17.93;;
20076;SDS011;12348;42.710;23.378;2022-12-29T04:32:47;33.43;;;15.50;;
20076;SDS011;12348;42.710;23.378;2022-12-29T04:35:14;33.03;;;16.20;;
20076;SDS011;12348;42.710;23.378;2022-12-29T04:37:41;27.13;;;12.83;;
20076;SDS011;12348;42.710;23.378;2022-12-29T04:40:10;26.37;;;12.20;;
20076;SDS011;12348;42.710;23.378;2022-12-29T04:42:38;24.73;;;13.50;;
20076;SDS011;12348;42.710;23.378;2022-12-29T04:45:05;34.50;;;16.20;;
20076;SDS011;12348;42.710;23.378;2022-12-29T04:47:33;36.37;;;18.93;;
20076;SDS011;12348;42.710;23.378;2022-12-29T04:50:00;33.33;;;16.23;;
20076;SDS011;12348;42.710;23.378;2022-12-29T04:52:26;45.53;;;21.87;;
20076;SDS011;12348;42.710;23.378;2022-12-29T04:54:53;42.33;;;21.47;;
20076;SDS011;12348;42.710;23.378;2022-12-29T04:57:21;40.90;;;21.67;;
20076;SDS011;12348;42.710;23.378;2022-12-29T04:59:48;30.17;;;14.20;;
20076;SDS011;12348;42.710;23.378;2022-12-29T05:02:15;36.23;;;18.20;;
20076;SDS011;12348;42.710;23.378;2022-12-29T05:04:42;34.53;;;17.80;;
20076;SDS011;12348;42.710;23.378;2022-12-29T05:07:08;22.73;;;13.93;;
20076;SDS011;12348;42.710;23.378;2022-12-29T05:09:35;30.37;;;17.23;;
20076;SDS011;12348;42.710;23.378;2022-12-29T05:12:02;28.10;;;13.47;;
20076;SDS011;12348;42.710;23.378;2022-12-29T05:14:32;32.90;;;19.23;;
20076;SDS011;12348;42.710;23.378;2022-12-29T05:16:58;32.93;;;19.07;;
20076;SDS011;12348;42.710;23.378;2022-12-29T05:19:25;23.70;;;11.97;;
20076;SDS011;12348;42.710;23.378;2022-12-29T05:21:52;33.40;;;18.63;;
20076;SDS011;12348;42.710;23.378;2022-12-29T05:24:19;37.87;;;19.10;;
20076;SDS011;12348;42.710;23.378;2022-12-29T05:26:46;30.53;;;15.90;;
20076;SDS011;12348;42.710;23.378;2022-12-29T05:29:12;30.00;;;16.00;;
20076;SDS011;12348;42.710;23.378;2022-12-29T05:31:41;35.50;;;16.23;;
20076;SDS011;12348;42.710;23.378;2022-12-29T05:34:08;35.33;;;18.03;;
20076;SDS011;12348;42.710;23.378;2022-12-29T05:36:35;19.07;;;11.20;;
20076;SDS011;12348;42.710;23.378;2022-12-29T05:39:02;20.73;;;11.93;;
20076;SDS011;12348;42.710;23.378;2022-12-29T05:41:29;24.53;;;12.97;;
20076;SDS011;12348;42.710;23.378;2022-12-29T05:43:56;27.10;;;12.17;;
20076;SDS011;12348;42.710;23.378;2022-12-29T05:46:22;20.93;;;11.70;;
20076;SDS011;12348;42.710;23.378;2022-12-29T05:48:50;20.00;;;12.00;;
20076;SDS011;12348;42.710;23.378;2022-12-29T05:51:17;24.67;;;12.37;;
20076;SDS011;12348;42.710;23.378;2022-12-29T05:53:44;21.40;;;12.27;;
20076;SDS011;12348;42.710;23.378;2022-12-29T05:56:11;23.67;;;12.97;;
20076;SDS011;12348;42.710;23.378;2022-12-29T05:58:37;21.60;;;11.30;;
20076;SDS011;12348;42.710;23.378;2022-12-29T06:01:04;20.37;;;11.43;;
20076;SDS011;12348;42.710;23.378;2022-12-29T06:03:31;25.27;;;13.07;;
20076;SDS011;12348;42.710;23.378;2022-12-29T06:05:59;25.40;;;12.40;;
20076;SDS011;12348;42.710;23.378;2022-12-29T06:08:26;23.33;;;11.73;;
20076;SDS011;12348;42.710;23.378;2022-12-29T06:10:53;23.57;;;11.07;;
20076;SDS011;12348;42.710;23.378;2022-12-29T06:13:20;19.67;;;11.63;;
20076;SDS011;12348;42.710;23.378;2022-12-29T06:15:47;23.57;;;12.30;;
20076;SDS011;12348;42.710;23.378;2022-12-29T06:18:14;21.30;;;12.37;;
20076;SDS011;12348;42.710;23.378;2022-12-29T06:20:41;21.07;;;12.83;;
20076;SDS011;12348;42.710;23.378;2022-12-29T06:23:11;21.63;;;11.93;;
20076;SDS011;12348;42.710;23.378;2022-12-29T06:25:38;27.77;;;15.90;;
20076;SDS011;12348;42.710;23.378;2022-12-29T06:28:05;20.53;;;12.23;;
20076;SDS011;12348;42.710;23.378;2022-12-29T06:30:32;20.17;;;11.73;;
20076;SDS011;12348;42.710;23.378;2022-12-29T06:32:59;21.80;;;11.10;;
20076;SDS011;12348;42.710;23.378;2022-12-29T06:35:26;20.97;;;10.47;;
20076;SDS011;12348;42.710;23.378;2022-12-29T06:37:53;21.77;;;11.60;;
20076;SDS011;12348;42.710;23.378;2022-12-29T06:40:21;23.03;;;12.33;;
20076;SDS011;12348;42.710;23.378;2022-12-29T06:42:49;21.07;;;11.63;;
20076;SDS011;12348;42.710;23.378;2022-12-29T06:45:16;25.43;;;12.57;;
20076;SDS011;12348;42.710;23.378;2022-12-29T06:47:43;26.23;;;13.40;;
20076;SDS011;12348;42.710;23.378;2022-12-29T06:50:09;21.87;;;11.20;;
20076;SDS011;12348;42.710;23.378;2022-12-29T06:52:36;21.80;;;11.73;;
20076;SDS011;12348;42.710;23.378;2022-12-29T06:55:03;20.43;;;11.40;;
20076;SDS011;12348;42.710;23.378;2022-12-29T06:57:32;22.97;;;11.83;;
20076;SDS011;12348;42.710;23.378;2022-12-29T06:59:59;17.87;;;10.83;;
20076;SDS011;12348;42.710;23.378;2022-12-29T07:02:25;20.80;;;11.73;;
20076;SDS011;12348;42.710;23.378;2022-12-29T07:04:52;18.90;;;10.53;;
20076;SDS011;12348;42.710;23.378;2022-12-29T07:07:19;18.57;;;9.63;;
20076;SDS011;12348;42.710;23.378;2022-12-29T07:09:46;16.00;;;9.70;;
20076;SDS011;12348;42.710;23.378;2022-12-29T07:12:13;16.13;;;9.83;;
20076;SDS011;12348;42.710;23.378;2022-12-29T07:14:41;18.17;;;10.40;;
20076;SDS011;12348;42.710;23.378;2022-12-29T07:17:08;14.03;;;9.07;;
20076;SDS011;12348;42.710;23.378;2022-12-29T07:19:35;16.87;;;10.00;;
20076;SDS011;12348;42.710;23.378;2022-12-29T07:22:02;19.17;;;10.43;;
20076;SDS011;12348;42.710;23.378;2022-12-29T07:24:28;20.93;;;9.83;;
20076;SDS011;12348;42.710;23.378;2022-12-29T07:26:55;19.47;;;10.90;;
20076;SDS011;12348;42.710;23.378;2022-12-29T07:29:22;24.03;;;12.60;;
20076;SDS011;12348;42.710;23.378;2022-12-29T07:31:50;20.27;;;10.83;;
20076;SDS011;12348;42.710;23.378;2022-12-29T07:34:17;17.37;;;10.97;;
20076;SDS011;12348;42.710;23.378;2022-12-29T07:36:44;15.50;;;9.57;;
20076;SDS011;12348;42.710;23.378;2022-12-29T07:39:11;19.13;;;10.10;;
20076;SDS011;12348;42.710;23.378;2022-12-29T07:41:37;20.20;;;10.40;;
20076;SDS011;12348;42.710;23.378;2022-12-29T07:44:04;21.83;;;9.87;;
20076;SDS011;12348;42.710;23.378;2022-12-29T07:46:31;18.17;;;11.00;;
20076;SDS011;12348;42.710;23.378;2022-12-29T07:48:59;13.47;;;7.80;;
20076;SDS011;12348;42.710;23.378;2022-12-29T07:51:26;15.73;;;8.87;;
20076;SDS011;12348;42.710;23.378;2022-12-29T07:53:53;17.23;;;10.43;;
20076;SDS011;12348;42.710;23.378;2022-12-29T07:56:20;20.90;;;11.27;;
20076;SDS011;12348;42.710;23.378;2022-12-29T07:58:46;20.87;;;10.93;;
20076;SDS011;12348;42.710;23.378;2022-12-29T08:01:13;17.80;;;10.40;;
20076;SDS011;12348;42.710;23.378;2022-12-29T08:03:40;19.47;;;11.03;;
20076;SDS011;12348;42.710;23.378;2022-12-29T08:06:10;20.53;;;11.57;;
20076;SDS011;12348;42.710;23.378;2022-12-29T08:08:36;21.07;;;11.40;;
20076;SDS011;12348;42.710;23.378;2022-12-29T08:11:04;17.93;;;10.53;;
20076;SDS011;12348;42.710;23.378;2022-12-29T08:13:30;15.93;;;10.30;;
20076;SDS011;12348;42.710;23.378;2022-12-29T08:15:57;20.67;;;9.90;;
20076;SDS011;12348;42.710;23.378;2022-12-29T08:18:24;19.03;;;11.03;;
20076;SDS011;12348;42.710;23.378;2022-12-29T08:20:51;18.80;;;11.77;;
20076;SDS011;12348;42.710;23.378;2022-12-29T08:23:20;19.67;;;11.60;;
20076;SDS011;12348;42.710;23.378;2022-12-29T08:25:46;15.90;;;9.80;;
20076;SDS011;12348;42.710;23.378;2022-12-29T08:28:13;18.53;;;10.70;;
20076;SDS011;12348;42.710;23.378;2022-12-29T08:30:40;18.47;;;10.73;;
20076;SDS011;12348;42.710;23.378;2022-12-29T08:33:07;21.13;;;12.10;;
20076;SDS011;12348;42.710;23.378;2022-12-29T08:35:33;16.50;;;8.60;;
20076;SDS011;12348;42.710;23.378;2022-12-29T08:38:00;17.57;;;10.93;;
20076;SDS011;12348;42.710;23.378;2022-12-29T08:40:28;19.03;;;11.37;;
20076;SDS011;12348;42.710;23.378;2022-12-29T08:42:55;20.63;;;10.87;;
20076;SDS011;12348;42.710;23.378;2022-12-29T08:45:22;20.33;;;12.17;;
20076;SDS011;12348;42.710;23.378;2022-12-29T08:47:49;22.27;;;11.67;;
20076;SDS011;12348;42.710;23.378;2022-12-29T08:50:16;18.80;;;11.33;;
20076;SDS011;12348;42.710;23.378;2022-12-29T08:52:43;25.07;;;11.70;;
20076;SDS011;12348;42.710;23.378;2022-12-29T08:55:10;19.80;;;10.90;;
20076;SDS011;12348;42.710;23.378;2022-12-29T08:57:38;19.60;;;11.47;;
20076;SDS011;12348;42.710;23.378;2022-12-29T09:00:05;19.93;;;10.97;;
20076;SDS011;12348;42.710;23.378;2022-12-29T09:02:33;18.03;;;11.43;;
20076;SDS011;12348;42.710;23.378;2022-12-29T09:05:00;16.20;;;10.53;;
20076;SDS011;12348;42.710;23.378;2022-12-29T09:07:27;20.27;;;11.37;;
20076;SDS011;12348;42.710;23.378;2022-12-29T09:09:54;16.97;;;10.03;;
20076;SDS011;12348;42.710;23.378;2022-12-29T09:12:21;21.30;;;11.13;;
20076;SDS011;12348;42.710;23.378;2022-12-29T09:14:49;22.07;;;10.97;;
20076;SDS011;12348;42.710;23.378;2022-12-29T09:17:15;16.90;;;10.60;;
20076;SDS011;12348;42.710;23.378;2022-12-29T09:19:59;13.57;;;9.17;;
20076;SDS011;12348;42.710;23.378;2022-12-29T09:22:26;13.63;;;9.40;;
20076;SDS011;12348;42.710;23.378;2022-12-29T09:24:53;23.10;;;10.77;;
20076;SDS011;12348;42.710;23.378;2022-12-29T09:27:20;18.77;;;10.17;;
20076;SDS011;12348;42.710;23.378;2022-12-29T09:29:46;15.60;;;9.30;;
20076;SDS011;12348;42.710;23.378;2022-12-29T09:32:15;13.37;;;7.77;;
20076;SDS011;12348;42.710;23.378;2022-12-29T09:34:42;15.53;;;7.97;;
20076;SDS011;12348;42.710;23.378;2022-12-29T09:37:08;16.07;;;10.23;;
20076;SDS011;12348;42.710;23.378;2022-12-29T09:39:35;14.80;;;8.77;;
20076;SDS011;12348;42.710;23.378;2022-12-29T09:42:03;11.97;;;8.00;;
20076;SDS011;12348;42.710;23.378;2022-12-29T09:44:39;15.20;;;8.70;;
20076;SDS011;12348;42.710;23.378;2022-12-29T09:47:16;15.63;;;9.13;;
20076;SDS011;12348;42.710;23.378;2022-12-29T09:49:46;12.67;;;8.77;;
20076;SDS011;12348;42.710;23.378;2022-12-29T09:52:15;18.87;;;9.83;;
20076;SDS011;12348;42.710;23.378;2022-12-29T09:54:49;15.23;;;9.23;;
20076;SDS011;12348;42.710;23.378;2022-12-29T09:57:21;13.90;;;8.50;;
20076;SDS011;12348;42.710;23.378;2022-12-29T09:59:52;14.37;;;9.33;;
20076;SDS011;12348;42.710;23.378;2022-12-29T10:02:29;15.20;;;9.70;;
20076;SDS011;12348;42.710;23.378;2022-12-29T10:05:00;14.77;;;8.90;;
20076;SDS011;12348;42.710;23.378;2022-12-29T10:07:33;17.13;;;8.97;;
20076;SDS011;12348;42.710;23.378;2022-12-29T10:10:10;14.40;;;8.83;;
20076;SDS011;12348;42.710;23.378;2022-12-29T10:12:51;13.97;;;9.43;;
20076;SDS011;12348;42.710;23.378;2022-12-29T10:15:38;17.40;;;9.93;;
20076;SDS011;12348;42.710;23.378;2022-12-29T10:18:17;17.77;;;9.70;;
20076;SDS011;12348;42.710;23.378;2022-12-29T10:20:55;15.13;;;8.37;;
20076;SDS011;12348;42.710;23.378;2022-12-29T10:23:28;16.50;;;9.30;;
20076;SDS011;12348;42.710;23.378;2022-12-29T10:25:58;14.83;;;10.47;;
20076;SDS011;12348;42.710;23.378;2022-12-29T10:28:31;14.50;;;10.10;;
20076;SDS011;12348;42.710;23.378;2022-12-29T10:31:03;14.43;;;8.97;;
20076;SDS011;12348;42.710;23.378;2022-12-29T10:33:36;17.53;;;10.30;;
20076;SDS011;12348;42.710;23.378;2022-12-29T10:36:10;14.23;;;8.73;;
20076;SDS011;12348;42.710;23.378;2022-12-29T10:38:42;13.03;;;8.63;;
20076;SDS011;12348;42.710;23.378;2022-12-29T10:41:17;14.80;;;8.90;;
20076;SDS011;12348;42.710;23.378;2022-12-29T10:43:48;14.27;;;8.03;;
20076;SDS011;12348;42.710;23.378;2022-12-29T10:46:18;14.43;;;8.50;;
20076;SDS011;12348;42.710;23.378;2022-12-29T10:48:47;16.00;;;10.00;;
20076;SDS011;12348;42.710;23.378;2022-12-29T10:51:16;15.53;;;8.70;;
20076;SDS011;12348;42.710;23.378;2022-12-29T10:53:47;15.00;;;8.00;;
20076;SDS011;12348;42.710;23.378;2022-12-29T10:56:26;17.97;;;8.60;;
20076;SDS011;12348;42.710;23.378;2022-12-29T10:58:59;17.53;;;10.47;;
20076;SDS011;12348;42.710;23.378;2022-12-29T11:01:37;19.83;;;9.77;;
20076;SDS011;12348;42.710;23.378;2022-12-29T11:04:20;19.60;;;10.07;;
20076;SDS011;12348;42.710;23.378;2022-12-29T11:06:59;18.20;;;10.37;;
20076;SDS011;12348;42.710;23.378;2022-12-29T11:09:28;16.23;;;9.70;;
20076;SDS011;12348;42.710;23.378;2022-12-29T11:11:57;19.00;;;10.97;;
20076;SDS011;12348;42.710;23.378;2022-12-29T11:14:26;18.33;;;11.13;;
20076;SDS011;12348;42.710;23.378;2022-12-29T11:16:56;24.90;;;13.97;;
20076;SDS011;12348;42.710;23.378;2022-12-29T11:19:26;24.30;;;14.30;;
20076;SDS011;12348;42.710;23.378;2022-12-29T11:21:56;24.23;;;13.93;;
20076;SDS011;12348;42.710;23.378;2022-12-29T11:24:43;26.70;;;11.23;;
20076;SDS011;12348;42.710;23.378;2022-12-29T11:27:13;25.10;;;14.73;;
20076;SDS011;12348;42.710;23.378;2022-12-29T11:29:42;27.23;;;15.10;;
20076;SDS011;12348;42.710;23.378;2022-12-29T11:32:10;22.63;;;12.33;;
20076;SDS011;12348;42.710;23.378;2022-12-29T11:34:40;27.37;;;13.30;;
20076;SDS011;12348;42.710;23.378;2022-12-29T11:37:10;21.23;;;12.10;;
20076;SDS011;12348;42.710;23.378;2022-12-29T11:39:39;21.70;;;10.97;;
20076;SDS011;12348;42.710;23.378;2022-12-29T11:42:13;21.30;;;11.27;;
20076;SDS011;12348;42.710;23.378;2022-12-29T11:44:43;14.87;;;8.87;;
20076;SDS011;12348;42.710;23.378;2022-12-29T11:47:12;17.60;;;10.70;;
20076;SDS011;12348;42.710;23.378;2022-12-29T11:49:54;19.73;;;11.03;;
20076;SDS011;12348;42.710;23.378;2022-12-29T11:52:23;20.23;;;10.17;;
20076;SDS011;12348;42.710;23.378;2022-12-29T11:54:52;16.70;;;10.27;;
20076;SDS011;12348;42.710;23.378;2022-12-29T11:57:21;20.67;;;10.87;;
20076;SDS011;12348;42.710;23.378;2022-12-29T11:59:49;18.77;;;11.17;;
20076;SDS011;12348;42.710;23.378;2022-12-29T12:05:14;25.43;;;13.93;;
20076;SDS011;12348;42.710;23.378;2022-12-29T12:07:49;27.50;;;14.73;;
20076;SDS011;12348;42.710;23.378;2022-12-29T12:10:23;28.27;;;15.20;;
20076;SDS011;12348;42.710;23.378;2022-12-29T12:13:00;28.03;;;15.63;;
20076;SDS011;12348;42.710;23.378;2022-12-29T12:15:34;19.77;;;11.10;;
20076;SDS011;12348;42.710;23.378;2022-12-29T12:18:08;20.57;;;10.83;;
20076;SDS011;12348;42.710;23.378;2022-12-29T12:20:44;20.13;;;11.33;;
20076;SDS011;12348;42.710;23.378;2022-12-29T12:23:18;18.73;;;11.43;;
20076;SDS011;12348;42.710;23.378;2022-12-29T12:25:56;21.13;;;12.63;;
20076;SDS011;12348;42.710;23.378;2022-12-29T12:28:30;22.73;;;11.97;;
20076;SDS011;12348;42.710;23.378;2022-12-29T12:31:04;19.97;;;11.63;;
20076;SDS011;12348;42.710;23.378;2022-12-29T12:33:41;25.53;;;13.17;;
20076;SDS011;12348;42.710;23.378;2022-12-29T12:36:22;21.40;;;12.37;;
20076;SDS011;12348;42.710;23.378;2022-12-29T12:39:06;21.23;;;12.30;;
20076;SDS011;12348;42.710;23.378;2022-12-29T12:41:41;20.07;;;11.30;;
20076;SDS011;12348;42.710;23.378;2022-12-29T12:44:20;24.23;;;12.47;;
20076;SDS011;12348;42.710;23.378;2022-12-29T12:47:01;25.33;;;12.27;;
20076;SDS011;12348;42.710;23.378;2022-12-29T12:49:52;19.47;;;11.07;;
20076;SDS011;12348;42.710;23.378;2022-12-29T12:52:41;22.63;;;12.37;;
20076;SDS011;12348;42.710;23.378;2022-12-29T12:58:17;21.97;;;12.07;;
20076;SDS011;12348;42.710;23.378;2022-12-29T13:00:57;27.30;;;13.20;;
20076;SDS011;12348;42.710;23.378;2022-12-29T13:03:43;27.40;;;14.90;;
20076;SDS011;12348;42.710;23.378;2022-12-29T13:06:22;22.87;;;12.97;;
20076;SDS011;12348;42.710;23.378;2022-12-29T13:09:21;25.37;;;13.17;;
20076;SDS011;12348;42.710;23.378;2022-12-29T13:12:07;24.27;;;13.90;;
20076;SDS011;12348;42.710;23.378;2022-12-29T13:14:47;23.93;;;12.73;;
20076;SDS011;12348;42.710;23.378;2022-12-29T13:17:23;26.13;;;12.87;;
20076;SDS011;12348;42.710;23.378;2022-12-29T13:19:58;23.60;;;13.07;;
20076;SDS011;12348;42.710;23.378;2022-12-29T13:22:35;24.23;;;12.50;;
20076;SDS011;12348;42.710;23.378;2022-12-29T13:25:18;17.90;;;11.57;;
20076;SDS011;12348;42.710;23.378;2022-12-29T13:27:53;23.23;;;13.00;;
20076;SDS011;12348;42.710;23.378;2022-12-29T13:30:27;28.57;;;13.33;;
20076;SDS011;12348;42.710;23.378;2022-12-29T13:32:59;23.43;;;13.30;;
20076;SDS011;12348;42.710;23.378;2022-12-29T13:35:46;23.80;;;12.40;;
20076;SDS011;12348;42.710;23.378;2022-12-29T13:38:22;21.97;;;12.20;;
20076;SDS011;12348;42.710;23.378;2022-12-29T13:40:54;24.13;;;12.63;;
20076;SDS011;12348;42.710;23.378;2022-12-29T13:43:23;21.17;;;11.50;;
20076;SDS011;12348;42.710;23.378;2022-12-29T13:45:56;27.07;;;12.07;;
20076;SDS011;12348;42.710;23.378;2022-12-29T13:48:29;26.53;;;12.97;;
20076;SDS011;12348;42.710;23.378;2022-12-29T13:51:03;28.07;;;13.53;;
20076;SDS011;12348;42.710;23.378;2022-12-29T13:53:35;22.17;;;13.80;;
20076;SDS011;12348;42.710;23.378;2022-12-29T13:56:11;24.30;;;12.70;;
20076;SDS011;12348;42.710;23.378;2022-12-29T13:58:46;26.50;;;12.80;;
20076;SDS011;12348;42.710;23.378;2022-12-29T14:01:21;22.73;;;12.13;;
20076;SDS011;12348;42.710;23.378;2022-12-29T14:03:54;21.43;;;11.90;;
20076;SDS011;12348;42.710;23.378;2022-12-29T14:06:22;23.73;;;12.87;;
20076;SDS011;12348;42.710;23.378;2022-12-29T14:08:52;22.07;;;11.77;;
20076;SDS011;12348;42.710;23.378;2022-12-29T14:11:22;31.63;;;12.57;;
20076;SDS011;12348;42.710;23.378;2022-12-29T14:13:54;34.23;;;13.10;;
20076;SDS011;12348;42.710;23.378;2022-12-29T14:16:26;21.90;;;12.30;;
20076;SDS011;12348;42.710;23.378;2022-12-29T14:19:05;26.80;;;13.23;;
20076;SDS011;12348;42.710;23.378;2022-12-29T14:21:38;23.47;;;12.90;;
20076;SDS011;12348;42.710;23.378;2022-12-29T14:24:26;32.20;;;14.03;;
20076;SDS011;12348;42.710;23.378;2022-12-29T14:30:06;32.70;;;18.00;;
20076;SDS011;12348;42.710;23.378;2022-12-29T14:33:13;26.13;;;14.07;;
20076;SDS011;12348;42.710;23.378;2022-12-29T14:35:41;21.47;;;12.93;;
20076;SDS011;12348;42.710;23.378;2022-12-29T14:38:18;28.30;;;14.83;;
20076;SDS011;12348;42.710;23.378;2022-12-29T14:40:48;29.37;;;13.83;;
20076;SDS011;12348;42.710;23.378;2022-12-29T14:43:26;22.90;;;13.40;;
20076;SDS011;12348;42.710;23.378;2022-12-29T14:45:56;26.00;;;13.80;;
20076;SDS011;12348;42.710;23.378;2022-12-29T14:48:33;37.60;;;14.80;;
20076;SDS011;12348;42.710;23.378;2022-12-29T14:51:16;38.70;;;16.40;;
20076;SDS011;12348;42.710;23.378;2022-12-29T14:53:46;24.20;;;13.43;;